Time;durP1;ratioP1;P1;durP2;ratioP2;P2;SDS_P1;SDS_P2;PMS_P1;PMS_P2;Temp;Humidity;BMP_temperature;BMP_pressure;BME280_temperature;BME280_humidity;BME280_pressure;Samples;Min_cycle;Max_cycle;Signal;HPM_P1;HPM_P2
2023/12/04 00:00:02;;;;;;;34.10;15.10;;;;;;;-2.60;100.00;101143.70;213796;1290;141944;-78
2023/12/04 00:06:02;;;;;;;31.50;14.20;;;;;;;-2.60;100.00;101139.92;212331;1293;139487;-77
2023/12/04 00:12:04;;;;;;;37.30;16.90;;;;;;;-2.59;100.00;101140.77;212028;1292;139758;-77
2023/12/04 00:18:05;;;;;;;32.70;15.70;;;;;;;-2.61;100.00;101146.55;211983;1294;140917;-78
2023/12/04 00:24:05;;;;;;;;;;;;;;;;;;;;;
2023/12/04 00:30:07;;;;;;;33.50;14.30;;;;;;;-2.65;100.00;101145.63;211649;1294;140921;-78
2023/12/04 00:36:09;;;;;;;29.50;13.90;;;;;;;-2.64;100.00;101142.30;213355;1293;140902;-78
2023/12/04 00:42:10;;;;;;;31.50;14.90;;;;;;;-2.65;100.00;101139.50;212376;1295;139994;-78
2023/12/04 00:48:11;;;;;;;33.40;14.70;;;;;;;-2.66;100.00;101142.09;212317;1295;141955;-78
2023/12/04 00:54:04;;;;;;;;;;;;;;;;;;;;;
2023/12/04 01:00:07;;;;;;;33.30;13.90;;;;;;;-2.68;100.00;101155.17;211724;1293;140708;-78
2023/12/04 01:06:08;;;;;;;32.20;14.70;;;;;;;-2.68;100.00;101148.77;214157;1294;141138;-78
2023/12/04 01:12:09;;;;;;;31.70;14.00;;;;;;;-2.66;100.00;101150.83;212661;1293;140067;-78
2023/12/04 01:18:10;;;;;;;32.20;13.60;;;;;;;-2.67;100.00;101158.25;212090;1293;153789;-78
2023/12/04 01:24:12;;;;;;;36.50;15.00;;;;;;;-2.72;100.00;101150.45;214292;1295;140759;-78
2023/12/04 01:30:12;;;;;;;30.20;12.70;;;;;;;-2.75;100.00;101150.67;217373;1292;141773;-78
2023/12/04 01:36:13;;;;;;;28.60;12.70;;;;;;;-2.77;100.00;101151.95;217420;1290;141357;-78
2023/12/04 01:42:14;;;;;;;31.30;13.70;;;;;;;-2.76;100.00;101152.98;212878;1295;139660;-78
2023/12/04 01:54:16;;;;;;;27.80;13.00;;;;;;;-2.74;100.00;101165.91;212808;1294;140055;-78
2023/12/04 02:00:20;;;;;;;26.60;12.00;;;;;;;-2.79;100.00;101159.45;212412;1294;141012;-78
2023/12/04 02:06:20;;;;;;;30.80;12.20;;;;;;;-2.82;100.00;101156.34;211603;1293;141378;-78
2023/12/04 02:12:19;;;;;;;27.50;12.30;;;;;;;-2.83;100.00;101155.59;212150;1295;139569;-78
2023/12/04 02:18:12;;;;;;;;;;;;;;;;;;;;;
2023/12/04 02:24:07;;;;;;;29.10;12.80;;;;;;;-2.85;100.00;101164.64;212197;1293;140128;-78
2023/12/04 02:30:01;;;;;;;29.00;12.40;;;;;;;-2.85;100.00;101160.59;211817;1288;140856;-78
2023/12/04 02:36:02;;;;;;;30.40;13.20;;;;;;;-2.84;100.00;101157.09;212199;1291;140106;-79
2023/12/04 02:41:46;;;;;;;33.90;14.10;;;;;;;-2.86;100.00;101160.70;213733;1294;139736;-77
2023/12/04 02:47:47;;;;;;;34.30;14.40;;;;;;;-2.85;100.00;101161.02;212066;1293;140667;-77
2023/12/04 02:53:49;;;;;;;34.40;15.50;;;;;;;-2.87;100.00;101154.45;212259;1294;106372;-79
2023/12/04 02:59:50;;;;;;;38.50;16.70;;;;;;;-2.88;100.00;101144.48;214108;1289;140546;-78
2023/12/04 03:05:51;;;;;;;35.70;14.20;;;;;;;-2.90;100.00;101140.19;213353;1289;105030;-78
2023/12/04 03:17:52;;;;;;;;;;;;;;;;;;;;;
2023/12/04 03:23:55;;;;;;;38.90;15.90;;;;;;;-2.92;100.00;101143.52;213225;1289;99026;-78
2023/12/04 03:29:56;;;;;;;38.00;14.80;;;;;;;-2.92;100.00;101143.90;211811;1291;140521;-78
2023/12/04 03:35:58;;;;;;;51.90;20.80;;;;;;;-2.91;100.00;101142.55;212609;1293;111530;-77
2023/12/04 03:41:59;;;;;;;52.40;23.10;;;;;;;-2.91;100.00;101143.84;215519;1293;110182;-79
2023/12/04 03:48:00;;;;;;;46.90;18.90;;;;;;;-2.92;100.00;101144.98;214155;1290;141016;-77
2023/12/04 03:54:02;;;;;;;46.40;18.10;;;;;;;-2.93;100.00;101144.23;213183;1291;112226;-77
2023/12/04 04:00:03;;;;;;;46.00;19.00;;;;;;;-2.94;100.00;101141.21;211793;1293;141113;-77
2023/12/04 04:06:05;;;;;;;41.30;17.50;;;;;;;-2.98;100.00;101136.75;212196;1293;139653;-78
2023/12/04 04:11:59;;;;;;;43.10;18.70;;;;;;;-2.97;100.00;101137.77;212382;1294;108075;-77
2023/12/04 04:18:00;;;;;;;44.30;19.30;;;;;;;-2.99;100.00;101134.48;211847;1293;141075;-78
2023/12/04 04:24:01;;;;;;;52.00;20.70;;;;;;;-3.01;100.00;101134.53;212283;1293;139471;-78
2023/12/04 04:30:02;;;;;;;50.40;21.00;;;;;;;-3.03;100.00;101132.71;212542;1293;140644;-78
2023/12/04 04:36:04;;;;;;;52.80;20.40;;;;;;;-3.03;100.00;101134.91;212269;1291;139595;-77
2023/12/04 04:42:05;;;;;;;57.10;21.60;;;;;;;-3.08;100.00;101120.43;212116;1288;141148;-78
2023/12/04 04:48:06;;;;;;;55.80;21.40;;;;;;;-3.10;100.00;101110.69;211785;1290;141062;-77
2023/12/04 04:54:07;;;;;;;54.00;21.50;;;;;;;-3.07;100.00;101110.36;212316;1294;108591;-77
2023/12/04 05:00:09;;;;;;;52.90;21.80;;;;;;;-3.10;100.00;101118.55;213418;1292;140884;-77
2023/12/04 05:06:10;;;;;;;58.30;22.20;;;;;;;-3.15;100.00;101126.09;211991;1293;165246;-78
2023/12/04 05:12:11;;;;;;;62.80;23.40;;;;;;;-3.17;100.00;101133.15;212650;1292;113394;-77
2023/12/04 05:18:12;;;;;;;55.90;21.80;;;;;;;-3.21;100.00;101127.01;212361;1291;141650;-77
2023/12/04 05:24:14;;;;;;;59.30;22.80;;;;;;;-3.21;100.00;101122.11;212621;1290;139524;-77
2023/12/04 05:36:16;;;;;;;67.60;22.90;;;;;;;-3.23;100.00;101116.95;217574;1289;141406;-78
2023/12/04 05:42:18;;;;;;;61.90;24.10;;;;;;;-3.21;100.00;101111.34;212410;1291;140424;-78
2023/12/04 05:48:19;;;;;;;65.20;24.30;;;;;;;-3.22;100.00;101112.73;211941;1293;141235;-78
2023/12/04 05:54:20;;;;;;;62.20;25.20;;;;;;;-3.20;100.00;101117.27;212993;1289;97964;-77
2023/12/04 06:00:21;;;;;;;56.20;21.30;;;;;;;-3.23;100.00;101113.55;211611;1293;140238;-77
2023/12/04 06:06:14;;;;;;;61.90;22.90;;;;;;;-3.24;100.00;101115.43;211775;1293;141160;-78
2023/12/04 06:18:09;;;;;;;67.80;27.40;;;;;;;-3.34;100.00;101101.92;211580;1294;141084;-77
2023/12/04 06:24:03;;;;;;;;;;;;;;;;;;;;;
2023/12/04 06:30:11;;;;;;;64.50;27.50;;;;;;;-3.36;100.00;101098.74;212093;1289;140156;-76
2023/12/04 06:36:03;;;;;;;59.90;23.40;;;;;;;-3.40;100.00;101101.54;212032;1293;140777;-79
2023/12/04 06:41:51;;;;;;;;;;;;;;;;;;;;;
2023/12/04 06:47:29;;;;;;;48.80;20.80;;;;;;;-3.38;100.00;101103.32;214031;1290;140438;-77
2023/12/04 06:53:29;;;;;;;53.00;19.40;;;;;;;-3.36;100.00;101097.02;212454;1294;139458;-78
2023/12/04 06:59:27;;;;;;;53.70;22.00;;;;;;;-3.35;100.00;101096.98;211723;1288;141104;-77
2023/12/04 07:05:08;;;;;;;;;;;;;;;-3.33;100.00;101100.20;212312;1293;139418;-76
2023/12/04 07:11:09;;;;;;;53.30;23.00;;;;;;;-3.32;100.00;101113.38;211866;1290;125520;-77
2023/12/04 07:17:00;;;;;;;55.80;23.30;;;;;;;-3.29;100.00;101109.67;212160;1290;140934;-77
2023/12/04 07:23:00;;;;;;;60.80;24.90;;;;;;;-3.25;100.00;101114.68;212187;1293;139573;-77
2023/12/04 07:29:01;;;;;;;64.60;26.00;;;;;;;-3.21;100.00;101112.52;211665;1293;140953;-77
2023/12/04 07:35:03;;;;;;;54.50;22.50;;;;;;;-3.21;100.00;101111.17;212161;1293;139402;-77
2023/12/04 07:46:57;;;;;;;51.10;21.30;;;;;;;-3.11;100.00;101119.14;212028;1293;140648;-77
2023/12/04 07:52:57;;;;;;;67.30;27.70;;;;;;;-3.02;100.00;101113.42;212384;1289;139381;-77
2023/12/04 07:58:59;;;;;;;65.40;28.40;;;;;;;-3.01;100.00;101123.38;211792;1291;140716;-75
2023/12/04 08:04:53;;;;;;;60.50;26.50;;;;;;;-2.99;100.00;101122.25;212209;1290;139342;-75
2023/12/04 08:16:55;;;;;;;71.20;29.30;;;;;;;-2.89;100.00;101125.75;212711;1291;140878;-74
2023/12/04 08:22:56;;;;;;;72.30;29.80;;;;;;;-2.88;100.00;101129.79;213054;1290;139424;-75
2023/12/04 08:34:59;;;;;;;68.90;29.50;;;;;;;-2.85;100.00;101130.00;212783;1293;139425;-75
2023/12/04 08:40:50;;;;;;;72.50;29.00;;;;;;;-2.79;100.00;101133.69;211739;1293;140541;-74
2023/12/04 08:46:37;;;;;;;67.90;30.00;;;;;;;-2.73;100.00;101133.80;211704;1293;141093;-75
2023/12/04 08:52:41;;;;;;;71.10;29.30;;;;;;;-2.69;100.00;101132.27;213759;1293;139850;-75
2023/12/04 08:58:40;;;;;;;72.10;30.90;;;;;;;-2.64;100.00;101135.45;211723;1291;140296;-74
2023/12/04 09:04:41;;;;;;;67.50;31.10;;;;;;;-2.60;100.00;101137.55;212394;1293;139504;-74
2023/12/04 09:10:42;;;;;;;76.60;33.40;;;;;;;-2.54;100.00;101141.57;211934;1293;140364;-75
2023/12/04 09:16:23;;;;;;;64.20;27.20;;;;;;;-2.44;100.00;101135.40;213224;1290;140836;-75
2023/12/04 09:22:26;;;;;;;67.20;28.40;;;;;;;-2.25;100.00;101130.98;212334;1293;139692;-75
2023/12/04 09:28:26;;;;;;;63.10;27.20;;;;;;;-2.04;100.00;101124.84;211975;1289;141436;-76
2023/12/04 09:34:27;;;;;;;62.80;27.30;;;;;;;-1.93;100.00;101124.20;212325;1294;139522;-74
2023/12/04 09:40:28;;;;;;;60.20;26.10;;;;;;;-1.89;100.00;101123.86;211593;1289;140794;-75
2023/12/04 09:46:19;;;;;;;;;;;;;;;;;;;;;
2023/12/04 09:52:29;;;;;;;60.80;27.80;;;;;;;-1.90;100.00;101120.45;212276;1293;139865;-76
2023/12/04 09:58:30;;;;;;;55.60;25.50;;;;;;;-1.83;100.00;101114.11;212566;1290;140977;-76
2023/12/04 10:04:31;;;;;;;61.60;27.00;;;;;;;-1.78;100.00;101111.06;212046;1293;139520;-76
2023/12/04 10:10:55;;;;;;;64.40;27.30;;;;;;;-1.71;100.00;101103.13;212394;1293;140350;-77
2023/12/04 10:28:40;;;;;;;;;;;;;;;;;;;;;
2023/12/04 10:34:42;;;;;;;47.90;23.20;;;;;;;-1.37;100.00;101072.81;212335;1293;140543;-78
2023/12/04 10:40:49;;;;;;;59.30;26.60;;;;;;;-1.30;100.00;101066.97;211574;1291;140631;-78
2023/12/04 10:46:33;;;;;;;51.90;23.00;;;;;;;-1.23;100.00;101061.56;211999;1290;141453;-79
2023/12/04 10:52:34;;;;;;;57.20;26.20;;;;;;;-1.14;100.00;101058.52;213971;1292;140415;-79
2023/12/04 10:58:56;;;;;;;51.50;23.10;;;;;;;-1.06;100.00;101051.30;213965;1290;140464;-79
2023/12/04 11:04:38;;;;;;;47.70;24.20;;;;;;;-0.99;100.00;101051.77;214000;1288;139596;-80
2023/12/04 11:10:40;;;;;;;52.00;23.10;;;;;;;-0.92;100.00;101049.23;213804;1291;140516;-80
2023/12/04 11:16:39;;;;;;;49.40;22.40;;;;;;;-0.84;100.00;101051.84;213411;1293;140912;-80
2023/12/04 11:22:40;;;;;;;46.50;21.00;;;;;;;-0.76;100.00;101052.25;216556;1290;140373;-80
2023/12/04 11:28:41;;;;;;;50.00;23.10;;;;;;;-0.69;100.00;101044.91;213464;1290;141438;-80
2023/12/04 11:34:52;;;;;;;52.20;22.90;;;;;;;-0.65;100.00;101041.20;214127;1291;139995;-80
2023/12/04 11:40:43;;;;;;;46.20;21.00;;;;;;;-0.61;100.00;101037.42;213621;1293;140922;-80
2023/12/04 11:46:44;;;;;;;45.70;21.50;;;;;;;-0.58;100.00;101031.77;213539;1291;141033;-81
2023/12/04 11:58:58;;;;;;;41.30;19.70;;;;;;;-0.43;100.00;101011.66;213760;1290;140749;-81
2023/12/04 12:04:53;;;;;;;;;;;;;;;;;;;;;
2023/12/04 12:10:55;;;;;;;36.70;18.70;;;;;;;-0.32;100.00;100981.30;213640;1290;140435;-81
2023/12/04 12:16:56;;;;;;;37.10;18.50;;;;;;;-0.26;100.00;100981.36;213790;1291;141055;-81
2023/12/04 12:28:58;;;;;;;40.70;18.70;;;;;;;-0.17;100.00;100970.85;213487;1291;141582;-81
2023/12/04 12:34:59;;;;;;;42.40;20.20;;;;;;;-0.17;100.00;100961.70;214455;1291;139227;-80
2023/12/04 12:41:11;;;;;;;;;;;;;;;;;;;;;
2023/12/04 12:47:13;;;;;;;42.50;18.60;;;;;;;-0.27;100.00;100946.75;212929;1291;140559;-80
2023/12/04 12:53:15;;;;;;;42.20;19.30;;;;;;;-0.33;100.00;100945.48;214327;1290;139670;-81
2023/12/04 12:59:17;;;;;;;47.80;20.70;;;;;;;-0.39;100.00;100939.80;213937;1293;140892;-80
2023/12/04 13:05:19;;;;;;;43.90;20.20;;;;;;;-0.44;100.00;100931.81;214282;1290;139422;-80
2023/12/04 13:11:19;;;;;;;45.80;20.40;;;;;;;-0.47;100.00;100927.81;214455;1290;140605;-79
2023/12/04 13:17:20;;;;;;;44.30;20.90;;;;;;;-0.56;100.00;100919.55;216315;1289;141027;-79
2023/12/04 13:23:24;;;;;;;52.80;24.40;;;;;;;-0.63;100.00;100912.78;214671;1289;139822;-79
2023/12/04 13:29:23;;;;;;;45.60;22.20;;;;;;;-0.80;100.00;100906.48;214286;1291;140932;-80
2023/12/04 13:35:37;;;;;;;46.50;21.80;;;;;;;-0.88;100.00;100897.77;214327;1293;140145;-79
2023/12/04 13:47:31;;;;;;;44.60;20.20;;;;;;;-0.96;100.00;100892.42;214258;1291;140712;-79
2023/12/04 13:53:33;;;;;;;49.50;22.40;;;;;;;-1.02;100.00;100890.02;214790;1293;140416;-78
2023/12/04 13:59:34;;;;;;;51.70;22.70;;;;;;;-1.14;100.00;100883.30;213968;1291;141307;-79
2023/12/04 14:05:34;;;;;;;102.40;34.10;;;;;;;-1.27;100.00;100880.92;214412;1291;140026;-78
2023/12/04 14:11:36;;;;;;;77.90;29.90;;;;;;;-1.37;100.00;100877.63;214350;1291;139732;-78
2023/12/04 14:17:39;;;;;;;88.90;31.70;;;;;;;-1.47;100.00;100881.52;214079;1292;141144;-78
2023/12/04 14:23:38;;;;;;;98.60;34.80;;;;;;;-1.59;100.00;100880.24;214416;1293;139411;-78
2023/12/04 14:29:40;;;;;;;79.10;31.50;;;;;;;-1.73;100.00;100873.45;214513;1291;140746;-78
2023/12/04 14:35:43;;;;;;;82.60;34.10;;;;;;;-1.80;100.00;100865.52;214740;1291;140086;-79
2023/12/04 14:41:42;;;;;;;62.70;28.00;;;;;;;-1.87;100.00;100860.35;214622;1291;140081;-78
2023/12/04 14:47:44;;;;;;;56.90;25.70;;;;;;;-1.93;100.00;100857.88;211842;1291;140955;-78
2023/12/04 15:18:53;;;;;;;84.40;35.50;;;;;;;-2.15;100.00;100848.58;210847;1297;141137;-78
2023/12/04 15:24:17;;;;;;;76.30;33.00;;;;;;;-2.21;100.00;100849.02;212097;1294;139633;-77
2023/12/04 15:36:22;;;;;;;80.80;37.30;;;;;;;-2.25;100.00;100839.14;211785;1290;140928;-78
2023/12/04 15:42:21;;;;;;;78.00;34.50;;;;;;;-2.29;100.00;100841.75;212384;1289;139350;-78
2023/12/04 15:48:22;;;;;;;86.90;36.50;;;;;;;-2.32;100.00;100836.70;211959;1291;141488;-77
2023/12/04 15:54:23;;;;;;;83.70;33.20;;;;;;;-2.32;100.00;100831.48;212366;1293;139500;-78
2023/12/04 16:00:24;;;;;;;85.80;34.00;;;;;;;-2.37;100.00;100823.11;211971;1293;142645;-77
2023/12/04 16:06:30;;;;;;;86.90;36.60;;;;;;;-2.36;100.00;100820.24;212020;1291;141122;-76
2023/12/04 16:18:32;;;;;;;116.00;45.10;;;;;;;-2.35;100.00;100817.27;212147;1293;141491;-77
2023/12/04 16:24:34;;;;;;;84.20;37.10;;;;;;;-2.37;100.00;100815.77;212770;1294;139600;-77
2023/12/04 16:30:24;;;;;;;88.00;36.30;;;;;;;-2.38;100.00;100813.31;212603;1294;141034;-76
2023/12/04 16:36:25;;;;;;;79.20;34.00;;;;;;;-2.40;100.00;100812.94;212092;1294;141292;-75
2023/12/04 16:42:27;;;;;;;92.60;36.50;;;;;;;-2.41;100.00;100806.70;212686;1293;139377;-75
2023/12/04 16:48:28;;;;;;;87.10;38.10;;;;;;;-2.44;100.00;100796.17;212134;1294;141157;-75
2023/12/04 16:54:29;;;;;;;76.30;33.40;;;;;;;-2.45;100.00;100788.73;212785;1293;139844;-75
2023/12/04 17:00:30;;;;;;;72.30;34.30;;;;;;;-2.44;100.00;100783.02;213155;1293;141804;-76
2023/12/04 17:06:24;;;;;;;;;;;;;;;;;;;;;
2023/12/04 17:12:26;;;;;;;81.00;35.20;;;;;;;-2.48;100.00;100758.21;212397;1295;139860;-76
2023/12/04 17:18:20;;;;;;;80.40;33.20;;;;;;;-2.45;100.00;100753.23;212063;1293;140986;-77
2023/12/04 17:24:21;;;;;;;74.70;32.80;;;;;;;-2.45;100.00;100753.27;213006;1290;140157;-77
2023/12/04 17:30:22;;;;;;;80.30;34.90;;;;;;;-2.48;100.00;100756.58;212836;1289;140779;-77
2023/12/04 17:36:24;;;;;;;83.10;33.10;;;;;;;-2.49;100.00;100746.73;212065;1296;141355;-77
2023/12/04 17:42:25;;;;;;;78.10;34.70;;;;;;;-2.52;100.00;100733.94;216804;1289;139458;-77
2023/12/04 17:48:06;;;;;;;81.60;34.40;;;;;;;-2.54;100.00;100730.67;212180;1295;141098;-77
2023/12/04 17:54:07;;;;;;;82.90;36.10;;;;;;;-2.60;100.00;100732.23;212661;1293;139869;-76
2023/12/04 18:00:33;;;;;;;77.90;35.30;;;;;;;-2.63;100.00;100724.56;211852;1291;140810;-77
2023/12/04 18:06:10;;;;;;;85.70;36.30;;;;;;;-2.65;100.00;100727.09;213095;1293;165793;-77
2023/12/04 18:12:11;;;;;;;84.90;35.70;;;;;;;-2.68;100.00;100720.55;212527;1298;139392;-76
2023/12/04 18:18:22;;;;;;;;;;;;;;;;;;;;;
2023/12/04 18:24:13;;;;;;;81.20;35.70;;;;;;;-2.77;100.00;100712.81;212438;1292;139481;-77
2023/12/04 18:30:17;;;;;;;85.40;35.30;;;;;;;-2.78;100.00;100709.48;217458;1293;140741;-76
2023/12/04 18:36:17;;;;;;;72.90;32.20;;;;;;;-2.78;100.00;100721.55;217480;1293;140814;-76
2023/12/04 18:42:18;;;;;;;80.60;35.40;;;;;;;-2.77;100.00;100721.88;212643;1295;138584;-76
2023/12/04 18:54:28;;;;;;;83.60;36.30;;;;;;;-2.77;100.00;100711.69;212376;1294;140748;-76
2023/12/04 19:00:28;;;;;;;89.20;34.60;;;;;;;-2.81;100.00;100708.17;216140;1288;140827;-76
2023/12/04 19:12:31;;;;;;;86.10;38.80;;;;;;;-2.84;100.00;100705.67;212714;1294;140167;-77
2023/12/04 19:18:21;;;;;;;;;;;;;;;;;;;;;
2023/12/04 19:24:34;;;;;;;91.20;36.80;;;;;;;-2.87;100.00;100686.03;212779;1298;140106;-75
2023/12/04 19:30:36;;;;;;;84.50;36.70;;;;;;;-2.86;100.00;100678.11;213918;1293;140748;-77
2023/12/04 19:36:37;;;;;;;84.30;36.40;;;;;;;-2.87;100.00;100669.02;217256;1293;141221;-76
2023/12/04 19:42:38;;;;;;;78.80;34.70;;;;;;;-2.87;100.00;100665.71;217795;1288;139829;-76
2023/12/04 19:48:39;;;;;;;87.20;36.20;;;;;;;-2.88;100.00;100668.21;212890;1289;142003;-76
2023/12/04 19:54:40;;;;;;;169.60;53.50;;;;;;;-2.87;100.00;100658.45;212448;1303;139734;-76
2023/12/04 20:00:42;;;;;;;156.90;49.60;;;;;;;-2.86;100.00;100650.48;212129;1294;141330;-78
2023/12/04 20:06:43;;;;;;;263.80;69.90;;;;;;;-2.87;100.00;100645.58;212729;1294;141023;-77
2023/12/04 20:12:44;;;;;;;195.30;63.30;;;;;;;-2.88;100.00;100643.66;212456;1304;139430;-77
2023/12/04 20:18:46;;;;;;;140.10;50.60;;;;;;;-2.89;100.00;100646.13;212380;1291;140891;-77
2023/12/04 20:24:47;;;;;;;110.50;44.20;;;;;;;-2.95;100.00;100641.52;212640;1291;99258;-78
2023/12/04 20:30:48;;;;;;;144.70;50.60;;;;;;;-3.01;100.00;100639.14;212155;1289;141772;-78
2023/12/04 20:36:55;;;;;;;155.60;51.60;;;;;;;-3.08;100.00;100637.27;212127;1294;141024;-78
2023/12/04 20:42:54;;;;;;;126.20;45.60;;;;;;;-3.13;100.00;100636.92;212604;1295;104782;-79
2023/12/04 20:48:55;;;;;;;99.30;40.20;;;;;;;-3.17;100.00;100636.97;214369;1288;141606;-77
2023/12/04 20:54:57;;;;;;;104.80;40.40;;;;;;;-3.17;100.00;100637.61;212655;1293;141377;-77
2023/12/04 21:06:59;;;;;;;96.70;41.20;;;;;;;-3.14;100.00;100636.84;212348;1296;141216;-77
2023/12/04 21:13:00;;;;;;;141.60;50.20;;;;;;;-3.17;100.00;100627.54;212800;1294;113045;-77
2023/12/04 21:19:02;;;;;;;118.40;43.70;;;;;;;-3.18;100.00;100624.09;213245;1293;141369;-78
2023/12/04 21:25:03;;;;;;;150.90;52.50;;;;;;;-3.21;100.00;100614.11;212586;1294;250022;-78
2023/12/04 21:30:56;;;;;;;;;;;;;;;;;;;;;
2023/12/04 21:36:58;;;;;;;114.30;47.00;;;;;;;-3.25;100.00;100596.23;212207;1295;140940;-78
2023/12/04 21:49:01;;;;;;;103.30;41.00;;;;;;;-3.26;100.00;100576.00;208178;1289;5348517;-77
2023/12/04 22:01:03;;;;;;;125.90;52.80;;;;;;;-3.25;100.00;100560.29;212179;1292;140765;-79
2023/12/04 22:07:04;;;;;;;88.60;38.00;;;;;;;-3.26;100.00;100555.55;212028;1289;141001;-79
2023/12/04 22:13:07;;;;;;;98.80;36.40;;;;;;;-3.25;100.00;100551.50;212487;1294;140960;-78
2023/12/04 22:18:56;;;;;;;84.10;33.20;;;;;;;-3.25;100.00;100546.33;213253;1290;142171;-78
2023/12/04 22:24:35;;;;;;;;;;;;;;;;;;;;;
2023/12/04 22:30:38;;;;;;;89.90;37.40;;;;;;;-3.24;100.00;100534.65;212056;1293;140763;-78
2023/12/04 22:36:40;;;;;;;82.50;35.50;;;;;;;-3.24;100.00;100529.85;212086;1295;141048;-77
2023/12/04 22:48:35;;;;;;;72.80;33.40;;;;;;;-3.17;100.00;100524.73;212371;1291;141010;-77
2023/12/04 22:54:35;;;;;;;68.80;27.30;;;;;;;-3.13;100.00;100522.31;213363;1289;139490;-77
2023/12/04 23:00:37;;;;;;;78.00;33.20;;;;;;;-3.09;100.00;100515.02;212013;1293;141022;-77
2023/12/04 23:06:38;;;;;;;68.50;24.80;;;;;;;-3.06;100.00;100513.05;212047;1290;141156;-78
2023/12/04 23:12:39;;;;;;;69.00;31.30;;;;;;;-3.07;100.00;100509.17;212523;1293;139881;-78
2023/12/04 23:18:41;;;;;;;66.90;29.70;;;;;;;-3.05;100.00;100507.49;217328;1290;141223;-78
2023/12/04 23:36:44;;;;;;;69.90;29.40;;;;;;;-3.05;100.00;100492.11;212399;1289;141161;-79
2023/12/04 23:42:43;;;;;;;;;;;;;;;;;;;;;
2023/12/04 23:48:43;;;;;;;;;;;;;;;;;;;;;
2023/12/04 23:54:46;;;;;;;68.70;30.90;;;;;;;-3.08;100.00;100478.50;212544;1294;139804;-80
